METAR stanice u blizini

 

LYBE - Beograd / Surčin, Srbija
Ažurirano: 03/07/2022 04:00
Vedro
Vedro
 Pravac vetra JJZ
Vetar: JJZ 9 km/h
Temperatura: 22°C
Tačka rose: 18°C
Vlažnost: 78%
Pritisak: 1018 hPa
Pregled: Vedro
Vidljivost: greater than 10 km
2022/07/03 02:00 LYBE 030200Z 21005KT 180V240 CAVOK 22/18 Q1018 NOSIG
LYBT - Beograd / Batajnica, Srbija
Ažurirano: 03/07/2022 04:00
Vedro
Vedro
 Pravac vetra varies
Vetar: varies 4 km/h
Temperatura: 19°C
Tačka rose: 19°C
Vlažnost: 100%
Pritisak: 1018 hPa
Pregled: Vedro
Vidljivost: greater than 10 km
2022/07/03 02:00 LYBT 030200Z VRB02KT CAVOK 19/19 Q1018 NOSIG
LYVR - Vršac, Srbija
Ažurirano: 03/07/2022 04:00
Vedro
Vedro
 Pravac vetra J
Vetar: J 6 km/h
Temperatura: 23°C
Tačka rose: 18°C
Vlažnost: 74%
Pritisak: 1018 hPa
Pregled: Vedro
Vidljivost: greater than 10 km
2022/07/03 02:00 LYVR 030200Z AUTO 19003KT CAVOK 23/18 Q1018
 
LYKV - Lađevci, Srbija
Ažurirano: 03/07/2022 04:00
Vedro
Vedro
 Pravac vetra varies
Vetar: varies 2 km/h
Temperatura: 18°C
Tačka rose: 17°C
Vlažnost: 94%
Pritisak: 1019 hPa
Pregled: Vedro
Vidljivost: greater than 10 km
2022/07/03 02:00 LYKV 030200Z VRB01KT CAVOK 18/17 Q1019 NOSIG
LYNI - Niš, Srbija
Ažurirano: 03/07/2022 04:00
Vedro
Vedro
 Pravac vetra ISI
Vetar: ISI 7 km/h
Temperatura: 20°C
Tačka rose: 17°C
Vlažnost: 83%
Pritisak: 1019 hPa
Pregled: Vedro
Vidljivost: greater than 10 km
2022/07/03 02:00 LYNI 030200Z 07004KT CAVOK 20/17 Q1019 NOSIG
BKPR - Priština, Srbija
Ažurirano: 03/07/2022 04:30
Vedro
Vedro
 Pravac vetra varies
Vetar: varies 2 km/h
Temperatura: 17°C
Tačka rose: 14°C
Vlažnost: 83%
Pritisak: 1020 hPa
Pregled: Vedro
Vidljivost: greater than 10 km
2022/07/03 02:30 BKPR 030230Z VRB01KT CAVOK 17/14 Q1020 NOSIG
 
LHPP - Pecs / Pogany, Hungary
Ažurirano: 03/07/2022 04:15
Vedro
Vedro
 Pravac vetra SSI
Vetar: SSI 7 km/h
Temperatura: 20°C
Tačka rose: 13°C
Vlažnost: 64%
Pritisak: 1019 hPa
Pregled: Vedro
Vidljivost: greater than 10 km
2022/07/03 02:15 LHPP 030215Z AUTO 03004KT CAVOK 20/13 Q1019
LHUD - Szeged, Hungary
Ažurirano: 04/07/2019 01:45
NOT Current
Vedro
Vedro
 Pravac vetra S
Vetar: S 7 km/h
Temperatura: 18°C
Tačka rose: 13°C
Vlažnost: 73%
Pritisak: 1019 hPa
Pregled: Vedro
Vidljivost: greater than 10 km
2019/07/03 23:45 LHUD 032345Z 35004KT CAVOK 18/13 Q1019
LRTR - Timisoara, Romania
Ažurirano: 03/07/2022 04:00
Vedro
Vedro
 Pravac vetra I
Vetar: I 11 km/h
Temperatura: 19°C
Tačka rose: 18°C
Vlažnost: 94%
Pritisak: 1017 hPa
Pregled: Vedro
Vidljivost: greater than 10 km
2022/07/03 02:00 LRTR 030200Z 09006KT CAVOK 19/18 Q1017 NOSIG
 
LRCV - Craiova, Romania
Ažurirano: 03/07/2022 04:00
Mist, Delimično oblačno
Mist, Delimično oblačno
 Pravac vetra SZ
Vetar: SZ 4 km/h
Temperatura: 20°C
Tačka rose: 19°C
Vlažnost: 94%
Pritisak: 1018 hPa
Pregled: Mist
Oblaci: Partly Cloudy
Vidljivost: 5 km
2022/07/03 02:00 LRCV 030200Z 31002KT 5000 BR NSC 20/19 Q1018
LBSF - Sofia, Bulgaria
Ažurirano: 03/07/2022 04:30
Vedro
Vedro
 Pravac vetra calm
Vetar: Tišina
Temperatura: 16°C
Tačka rose: 15°C
Vlažnost: 94%
Pritisak: 1021 hPa
Oblaci: Vedro
Vidljivost: 10 km
2022/07/03 02:30 LBSF 030230Z AUTO 00000KT 9999 NCD 16/15 Q1021 NOSIG
LWSK - Skoplje, Makedonija
Ažurirano: 03/07/2022 03:30
Vedro
Vedro
 Pravac vetra varies
Vetar: varies 2 km/h
Temperatura: 20°C
Tačka rose: 17°C
Vlažnost: 83%
Pritisak: 1019 hPa
Pregled: Vedro
Vidljivost: greater than 10 km
2022/07/03 01:30 LWSK 030130Z VRB01KT CAVOK 20/17 Q1019 NOSIG
 
LYPG - Podgorica, Crna Gora
Ažurirano: 03/07/2022 04:00
Vedro
Vedro
 Pravac vetra S
Vetar: S 7 km/h
Temperatura: 25°C
Tačka rose: 14°C
Vlažnost: 51%
Pritisak: 1015 hPa
Pregled: Vedro
Vidljivost: greater than 10 km
2022/07/03 02:00 LYPG 030200Z 36004KT 310V040 CAVOK 25/14 Q1015 NOSIG
LQSA - Sarajevo, Bosna i Hercegovina
Ažurirano: 03/07/2022 04:00
Vedro
Vedro
 Pravac vetra IJI
Vetar: IJI 7 km/h
Temperatura: 18°C
Tačka rose: 16°C
Vlažnost: 88%
Pritisak: 1020 hPa
Pregled: Vedro
Vidljivost: greater than 10 km
2022/07/03 02:00 LQSA 030200Z 12004KT CAVOK 18/16 Q1020
LDOS - Osijek, Hrvatksa
Ažurirano: 03/07/2022 04:30
Vedro
Vedro
 Pravac vetra Z
Vetar: Z 6 km/h
Temperatura: 16°C
Tačka rose: 15°C
Vlažnost: 94%
Pritisak: 1018 hPa
Pregled: Vedro
Vidljivost: greater than 10 km
2022/07/03 02:30 LDOS 030230Z 28003KT CAVOK 16/15 Q1018